Details From YBBN - Brisbane Intl
To YBRK - Rockhampton
Flight Number -
Tags decoded
Created
Modified
Stats Distance 280 nm / 519 km
Max Altitude 0 ft / 0 m
Waypoints 3
Social Downloads 303
Likes 0
Share

Download

Looking for another format? Having issues loading an existing format? Contact us
Advertisement - Login to hide

Notes

Requested: YBBN BN V308 DADBO YBRK

Route

YBBN DADBO YBRK

ID Type Via Altitude (ft/m) Position (lat/lon) Dist (leg/tot) Name
O YBBN APT - 0 / 0 -27.37580 / 153.12800 - / 0 nm Brisbane Intl
DADBO FIX - 0 / 0 -23.86970 / 150.85600 243 / 243 nm
O YBRK APT - 0 / 0 -23.37880 / 150.47300 36 / 280 nm Rockhampton

Altitude Profile

Advertisement - Login to hide

Weather


0- 5 10 15 20 25 30 35+ Temperature / °C

Clouds and Precipitation
Forecast for 2021-03-22 12:00 UTC. Updated 2 months ago

Ground ~20,000 ft ~40,000 ft Winds

YBBN

Details ICAO YBBN (BNE)
Name Brisbane Intl
Region Australia
Timezone Australia/Brisbane (UTC+10.0)
Stats Elevation 15 ft / 5 m (AMSL)
Location -27.375800° 153.128000°
Runways 2
Magnetic Variation 11.001° E

METAR

YBBN 121630Z 23004KT 9999 FEW012 BKN017 18/17 Q1013

Decode

TAF

TAF YBBN 121404Z 1215/1318 22006KT 9999 SCT008 FM130000 25014KT CAVOK FM130900 26008KT CAVOK TEMPO 1215/1222 9999 BKN008 PROB30 1216/1222 0500 FG BKN002

Decode

Departure Runways

ID Width Length Bearing (true/mag) Surface Threshold Overrun Markings Lighting
01 148 ft / 45 m 11,744 ft / 3,580 m 26.93° / 15.93° ASPHALT 213 ft / 65 m 0 ft / 0 m PREC-APP CENTERLINE EDGE THRESHOLD CALVERT REIL-OMNI
14 98 ft / 30 m 5,787 ft / 1,764 m 145.66° / 134.66° ASPHALT 197 ft / 60 m 0 ft / 0 m PREC-APP EDGE THRESHOLD
19 148 ft / 45 m 11,744 ft / 3,580 m 206.92° / 195.92° ASPHALT 0 ft / 0 m 0 ft / 0 m PREC-APP CENTERLINE EDGE THRESHOLD CALVERT TDZ REIL-OMNI
32 98 ft / 30 m 5,787 ft / 1,764 m 325.66° / 314.66° ASPHALT 197 ft / 60 m 0 ft / 0 m PREC-APP EDGE THRESHOLD

YBRK

Details ICAO YBRK (ROK)
Name Rockhampton
Region Australia
Timezone Australia/Brisbane (UTC+10.0)
Stats Elevation 36 ft / 11 m (AMSL)
Location -23.378800° 150.474000°
Runways 2
Magnetic Variation 9.179° E

METAR

YBRK 121630Z AUTO 12004KT 9999 // SCT048 BKN110 22/21 Q1012

Decode

TAF

TAF AMD YBRK 121346Z 1213/1312 VRB03KT 9999 SCT005 BKN016 FM122300 20008KT CAVOK TEMPO 1214/1223 9999 BKN005 PROB30 1214/1222 0500 FG

Decode

Destination Runways

ID Width Length Bearing (true/mag) Surface Threshold Overrun Markings Lighting
04 98 ft / 30 m 5,394 ft / 1,644 m 52.27° / 43.09° ASPHALT 0 ft / 0 m 0 ft / 0 m PREC-APP
15 145 ft / 44 m 8,650 ft / 2,637 m 157.79° / 148.62° ASPHALT 200 ft / 61 m 292 ft / 89 m PREC-APP CENTERLINE EDGE THRESHOLD REIL-OMNI
22 98 ft / 30 m 5,394 ft / 1,644 m 232.26° / 223.08° ASPHALT 2,769 ft / 844 m 0 ft / 0 m NONE
33 145 ft / 44 m 8,650 ft / 2,637 m 337.79° / 328.61° ASPHALT 0 ft / 0 m 213 ft / 65 m PREC-APP CENTERLINE EDGE THRESHOLD REIL-OMNI

Popular Alternatives